Terminal Aerodrome Forecast
Issued by NWS

Home | Current Version | Previous Version | Text Only | Print | Product List | Glossary On
Versions: 1 2 3 4 5 6 7 8 9 10 11 12 13 14
000
FTUS45 KPSR 251100
TAFBLH
TAF
KBLH 251134Z 2512/2612 18012KT P6SM SCT150 BKN250
     FM251600 17015G25KT P6SM SCT150 BKN250
     FM260100 20012KT P6SM SCT150 BKN250=

USA.gov is the U.S. government's official web portal to all federal, state and local government web resources and services.